createdAt,value
2023-05-14T00:00:30.346Z,94482.41
2023-05-14T00:02:59.132Z,94486.72
2023-05-14T00:05:27.560Z,94483.59
2023-05-14T00:07:54.301Z,94479.88
2023-05-14T00:10:20.858Z,94478.06
2023-05-14T00:12:47.429Z,94474.41
2023-05-14T00:15:15.937Z,94473.00
2023-05-14T00:17:44.521Z,94468.66
2023-05-14T00:20:13.374Z,94473.53
2023-05-14T00:22:41.701Z,94465.75
2023-05-14T00:25:10.305Z,94467.03
2023-05-14T00:27:37.964Z,94464.97
2023-05-14T00:30:05.477Z,94468.22
2023-05-14T00:32:33.118Z,94461.25
2023-05-14T00:35:00.670Z,94465.56
2023-05-14T00:37:29.530Z,94458.63
2023-05-14T00:39:57.862Z,94454.06
2023-05-14T00:42:27.026Z,94454.91
2023-05-14T00:44:54.020Z,94454.78
2023-05-14T00:47:21.670Z,94456.66
2023-05-14T00:49:48.302Z,94451.59
2023-05-14T00:52:14.809Z,94454.06
2023-05-14T00:54:43.424Z,94453.66
2023-05-14T00:57:11.010Z,94446.16
2023-05-14T00:59:38.597Z,94450.00
2023-05-14T01:02:06.194Z,94443.63
2023-05-14T01:04:33.072Z,94443.78
2023-05-14T01:07:00.361Z,94436.84
2023-05-14T01:09:27.025Z,94441.50
2023-05-14T01:11:54.532Z,94433.44
2023-05-14T01:14:23.252Z,94429.94
2023-05-14T01:16:50.927Z,94426.41
2023-05-14T01:19:18.349Z,94429.06
2023-05-14T01:21:45.910Z,94423.28
2023-05-14T01:24:15.030Z,94426.53
2023-05-14T01:26:42.084Z,94426.34
2023-05-14T01:29:08.683Z,94426.16
2023-05-14T01:31:35.443Z,94424.59
2023-05-14T01:34:03.001Z,94428.41
2023-05-14T01:36:30.567Z,94432.00
2023-05-14T01:38:58.180Z,94425.34
2023-05-14T01:41:27.261Z,94432.28
2023-05-14T01:43:55.347Z,94430.06
2023-05-14T01:46:23.009Z,94427.41
2023-05-14T01:48:51.549Z,94428.59
2023-05-14T01:51:19.131Z,94426.16
2023-05-14T01:53:47.743Z,94426.53
2023-05-14T01:56:14.338Z,94426.28
2023-05-14T01:58:42.911Z,94429.94
2023-05-14T02:01:10.550Z,94427.50
2023-05-14T02:03:38.144Z,94434.81
2023-05-14T02:06:07.083Z,94438.09
2023-05-14T02:08:35.336Z,94425.84
2023-05-14T02:11:02.947Z,94429.13
2023-05-14T02:13:31.527Z,94424.84
2023-05-14T02:16:00.295Z,94428.94
2023-05-14T02:18:27.779Z,94429.00
2023-05-14T02:20:56.710Z,94435.53
2023-05-14T02:23:34.080Z,94429.06
2023-05-14T02:26:05.585Z,94433.47
2023-05-14T02:28:33.150Z,94426.53
2023-05-14T02:31:00.806Z,94424.88
2023-05-14T02:33:28.387Z,94432.66
2023-05-14T02:35:55.975Z,94430.66
2023-05-14T02:38:23.570Z,94429.44
2023-05-14T02:40:51.167Z,94422.47
2023-05-14T02:43:18.725Z,94419.78
2023-05-14T02:45:46.316Z,94415.50
2023-05-14T02:48:13.957Z,94412.84
2023-05-14T02:50:41.507Z,94404.25
2023-05-14T02:53:10.100Z,94404.84
2023-05-14T02:55:36.689Z,94404.41
2023-05-14T02:58:03.259Z,94404.19
2023-05-14T03:00:31.874Z,94403.38
2023-05-14T03:03:00.495Z,94403.19
2023-05-14T03:05:29.080Z,94400.19
2023-05-14T03:07:56.664Z,94401.38
2023-05-14T03:10:24.584Z,94407.66
2023-05-14T03:12:51.834Z,94399.72
2023-05-14T03:15:20.416Z,94401.59
2023-05-14T03:17:47.033Z,94397.00
2023-05-14T03:20:14.660Z,94402.75
2023-05-14T03:22:43.214Z,94404.63
2023-05-14T03:25:09.755Z,94400.56
2023-05-14T03:27:36.187Z,94408.34
2023-05-14T03:30:04.000Z,94402.84
2023-05-14T03:32:31.602Z,94404.69
2023-05-14T03:34:59.172Z,94404.00
2023-05-14T03:37:27.759Z,94398.59
2023-05-14T03:39:56.355Z,94395.69
2023-05-14T03:42:24.956Z,94404.25
2023-05-14T03:44:52.549Z,94395.94
2023-05-14T03:47:20.162Z,94395.72
2023-05-14T03:49:48.803Z,94409.44
2023-05-14T03:52:15.402Z,94406.41
2023-05-14T03:54:46.028Z,94412.75
2023-05-14T03:57:14.776Z,94409.94
2023-05-14T03:59:41.264Z,94415.03
2023-05-14T04:02:10.045Z,94419.53
2023-05-14T04:04:37.452Z,94415.22
2023-05-14T04:07:04.985Z,94414.97
2023-05-14T04:09:33.693Z,94413.91
2023-05-14T04:12:02.179Z,94413.28
2023-05-14T04:14:30.778Z,94411.84
2023-05-14T04:17:00.167Z,94413.69
2023-05-14T04:19:29.256Z,94415.50
2023-05-14T04:21:57.554Z,94406.72
2023-05-14T04:24:25.167Z,94409.81
2023-05-14T04:26:53.755Z,94413.53
2023-05-14T04:29:22.716Z,94413.59
2023-05-14T04:31:50.958Z,94413.22
2023-05-14T04:34:18.530Z,94414.03
2023-05-14T04:36:47.157Z,94413.81
2023-05-14T04:39:14.723Z,94411.16
2023-05-14T04:41:43.306Z,94417.31
2023-05-14T04:44:09.800Z,94418.13
2023-05-14T04:46:36.511Z,94417.75
2023-05-14T04:49:03.475Z,94421.53
2023-05-14T04:51:29.970Z,94413.34
2023-05-14T04:53:56.413Z,94417.00
2023-05-14T04:56:24.832Z,94419.47
2023-05-14T04:58:51.481Z,94418.63
2023-05-14T05:01:20.029Z,94414.41
2023-05-14T05:03:47.679Z,94422.34
2023-05-14T05:06:16.217Z,94422.19
2023-05-14T05:08:45.141Z,94421.69
2023-05-14T05:11:13.429Z,94424.75
2023-05-14T05:13:41.059Z,94423.25
2023-05-14T05:16:07.728Z,94429.41
2023-05-14T05:18:36.341Z,94433.31
2023-05-14T05:21:03.899Z,94429.25
2023-05-14T05:23:31.469Z,94429.69
2023-05-14T05:25:59.070Z,94435.25
2023-05-14T05:28:26.653Z,94432.03
2023-05-14T05:30:55.247Z,94435.09
2023-05-14T05:33:23.812Z,94434.09
2023-05-14T05:35:51.446Z,94439.00
2023-05-14T05:38:19.032Z,94431.09
2023-05-14T05:40:46.612Z,94426.84
2023-05-14T05:43:13.212Z,94430.78
2023-05-14T05:45:39.803Z,94424.69
2023-05-14T05:48:07.472Z,94425.94
2023-05-14T05:50:33.963Z,94420.06
2023-05-14T05:53:01.611Z,94428.66
2023-05-14T05:55:28.462Z,94425.94
2023-05-14T05:57:55.801Z,94429.13
2023-05-14T06:00:25.218Z,94428.16
2023-05-14T06:02:54.033Z,94429.44
2023-05-14T06:05:22.988Z,94439.72
2023-05-14T06:07:50.155Z,94438.53
2023-05-14T06:10:18.761Z,94437.38
2023-05-14T06:12:47.545Z,94439.00
2023-05-14T06:15:15.151Z,94434.75
2023-05-14T06:17:42.761Z,94435.97
2023-05-14T06:20:11.331Z,94440.72
2023-05-14T06:22:39.955Z,94439.94
2023-05-14T06:25:07.546Z,94435.66
2023-05-14T06:27:36.152Z,94439.53
2023-05-14T06:30:03.007Z,94443.63
2023-05-14T06:32:30.370Z,94430.97
2023-05-14T06:34:57.915Z,94436.69
2023-05-14T06:37:24.517Z,94441.41
2023-05-14T06:39:51.125Z,94444.47
2023-05-14T06:42:18.043Z,94439.59
2023-05-14T06:44:45.292Z,94440.38
2023-05-14T06:47:12.869Z,94443.69
2023-05-14T06:49:40.467Z,94437.16
2023-05-14T06:52:06.943Z,94444.31
2023-05-14T06:54:33.441Z,94443.31
2023-05-14T06:56:59.918Z,94440.84
2023-05-14T06:59:26.401Z,94440.06
2023-05-14T07:01:54.479Z,94431.72
2023-05-14T07:04:22.057Z,94437.47
2023-05-14T07:06:49.590Z,94435.59
2023-05-14T07:09:17.215Z,94438.91
2023-05-14T07:11:44.004Z,94428.66
2023-05-14T07:14:10.484Z,94428.03
2023-05-14T07:16:37.004Z,94425.81
2023-05-14T07:19:03.592Z,94423.53
2023-05-14T07:26:56.498Z,94424.03
2023-05-14T07:32:31.227Z,94407.56
2023-05-14T07:43:46.359Z,94397.16
2023-05-14T07:45:50.037Z,94406.41
2023-05-14T07:48:21.940Z,94396.47
2023-05-14T07:50:51.215Z,94390.84
2023-05-14T07:53:21.186Z,94394.13
2023-05-14T07:55:49.431Z,94391.69
2023-05-14T07:58:18.274Z,94397.91
2023-05-14T08:00:47.653Z,94390.84
2023-05-14T08:03:17.362Z,94400.16
2023-05-14T08:05:45.843Z,94396.44
2023-05-14T08:08:13.429Z,94394.03
2023-05-14T08:10:41.063Z,94394.94
2023-05-14T08:13:09.636Z,94398.28
2023-05-14T08:15:38.200Z,94398.28
2023-05-14T08:18:07.710Z,94397.63
2023-05-14T08:20:34.442Z,94400.84
2023-05-14T08:23:05.236Z,94396.22
2023-05-14T08:25:33.996Z,94390.47
2023-05-14T08:28:03.221Z,94391.34
2023-05-14T08:30:31.857Z,94392.16
2023-05-14T08:32:59.472Z,94400.91
2023-05-14T08:35:39.185Z,94395.38
2023-05-14T08:38:08.026Z,94403.06
2023-05-14T08:40:42.246Z,94394.91
2023-05-14T08:43:09.888Z,94403.88
2023-05-14T08:45:37.494Z,94401.41
2023-05-14T08:48:05.130Z,94394.06
2023-05-14T08:50:32.704Z,94400.84
2023-05-14T08:53:00.249Z,94400.16
2023-05-14T08:55:30.584Z,94400.41
2023-05-14T08:58:03.515Z,94401.72
2023-05-14T09:00:33.975Z,94404.72
2023-05-14T09:03:03.045Z,94403.53
2023-05-14T09:05:31.274Z,94410.03
2023-05-14T09:07:58.812Z,94405.16
2023-05-14T09:10:26.650Z,94404.56
2023-05-14T09:12:54.036Z,94400.16
2023-05-14T09:15:23.369Z,94405.53
2023-05-14T09:17:52.273Z,94404.88
2023-05-14T09:20:20.822Z,94398.41
2023-05-14T09:22:49.442Z,94399.28
2023-05-14T09:25:18.040Z,94390.97
2023-05-14T09:27:46.813Z,94396.47
2023-05-14T09:30:14.192Z,94397.13
2023-05-14T09:35:25.162Z,94396.19
2023-05-14T09:37:52.025Z,94392.47
2023-05-14T09:46:14.032Z,94386.00
2023-05-14T09:48:41.703Z,94390.38
2023-05-14T09:51:12.489Z,94383.75
2023-05-14T09:53:40.867Z,94394.81
2023-05-14T09:59:01.050Z,94385.44
2023-05-14T10:04:33.125Z,94389.31
2023-05-14T10:07:20.354Z,94387.41
2023-05-14T10:10:00.062Z,94383.75
2023-05-14T10:26:03.613Z,94383.09
2023-05-14T10:34:39.725Z,94385.44
2023-05-14T10:59:13.197Z,94377.34
2023-05-14T11:28:56.163Z,94349.88
2023-05-14T11:31:31.856Z,94346.13
2023-05-14T12:05:25.156Z,94312.63
2023-05-14T12:07:54.328Z,94316.00
2023-05-14T12:13:27.803Z,94314.34
2023-05-14T12:15:57.349Z,94307.97
2023-05-14T12:18:32.428Z,94306.91
2023-05-14T12:21:01.527Z,94305.16
2023-05-14T12:23:30.257Z,94304.47
2023-05-14T12:25:59.769Z,94298.28
2023-05-14T12:28:28.298Z,94310.31
2023-05-14T12:30:57.824Z,94305.16
2023-05-14T12:33:26.653Z,94305.75
2023-05-14T12:38:42.162Z,94293.41
2023-05-14T12:49:33.355Z,94286.75
2023-05-14T12:52:19.486Z,94283.38
2023-05-14T12:57:27.362Z,94285.56
2023-05-14T12:59:55.967Z,94282.16
2023-05-14T13:02:25.400Z,94282.06
2023-05-14T13:07:39.985Z,94282.31
2023-05-14T13:10:09.347Z,94284.88
2023-05-14T13:12:36.066Z,94288.88
2023-05-14T13:15:07.942Z,94283.88
2023-05-14T13:17:35.262Z,94277.81
2023-05-14T13:20:06.617Z,94283.88
2023-05-14T13:23:53.384Z,94277.38
2023-05-14T13:30:58.455Z,94267.91
2023-05-14T13:33:27.502Z,94260.81
2023-05-14T13:36:47.742Z,94252.56
2023-05-14T13:38:46.363Z,94257.78
2023-05-14T13:41:13.932Z,94253.13
2023-05-14T13:43:43.758Z,94251.81
2023-05-14T13:46:14.323Z,94257.38
2023-05-14T13:48:42.763Z,94252.06
2023-05-14T13:56:21.662Z,94246.41
2023-05-14T13:58:50.846Z,94242.59
2023-05-14T14:01:18.954Z,94251.34
2023-05-14T14:03:46.387Z,94239.44
2023-05-14T14:08:04.512Z,94238.91
2023-05-14T14:09:15.152Z,94250.19
2023-05-14T14:11:42.656Z,94230.53
2023-05-14T14:14:11.156Z,94234.97
2023-05-14T14:16:39.966Z,94223.91
2023-05-14T14:19:11.432Z,94213.22
2023-05-14T14:24:34.873Z,94224.97
2023-05-14T14:27:03.540Z,94220.22
2023-05-14T14:29:32.113Z,94212.63
2023-05-14T14:34:49.482Z,94204.13
2023-05-14T14:37:21.235Z,94205.63
2023-05-14T14:45:10.923Z,94210.41
2023-05-14T14:47:40.434Z,94213.91
2023-05-14T14:53:13.799Z,94211.81
2023-05-14T14:55:42.729Z,94213.59
2023-05-14T15:03:58.795Z,94220.28
2023-05-14T15:09:22.542Z,94236.03
2023-05-14T15:12:04.472Z,94244.16
2023-05-14T15:17:49.434Z,94242.56
2023-05-14T15:20:16.561Z,94254.97
2023-05-14T15:22:49.141Z,94252.97
2023-05-14T15:31:07.173Z,94252.13
2023-05-14T15:33:39.041Z,94253.09
2023-05-14T15:36:16.030Z,94269.47
2023-05-14T15:39:18.477Z,94256.78
2023-05-14T16:01:42.570Z,94239.78
2023-05-14T16:04:12.923Z,94232.69
2023-05-14T16:06:47.805Z,94233.50
2023-05-14T16:31:32.752Z,94236.88
2023-05-14T16:34:04.683Z,94247.94
2023-05-14T16:39:22.572Z,94255.38
2023-05-14T16:50:13.523Z,94255.69
2023-05-14T17:28:52.641Z,94328.25
2023-05-14T17:44:12.906Z,94366.47
2023-05-14T17:46:41.046Z,94372.34
2023-05-14T17:49:08.527Z,94379.78
2023-05-14T17:51:37.109Z,94399.34
2023-05-14T17:54:06.453Z,94426.19
2023-05-14T17:56:35.375Z,94417.53
2023-05-14T17:59:02.968Z,94418.97
2023-05-14T18:01:31.910Z,94413.97
2023-05-14T18:04:00.214Z,94413.41
2023-05-14T18:06:27.706Z,94399.03
2023-05-14T18:08:55.305Z,94409.41
2023-05-14T18:11:22.911Z,94405.84
2023-05-14T18:13:49.472Z,94406.34
2023-05-14T18:16:16.416Z,94403.78
2023-05-14T18:18:43.680Z,94400.91
2023-05-14T18:21:11.267Z,94402.38
2023-05-14T18:23:39.875Z,94390.78
2023-05-14T18:26:07.455Z,94396.25
2023-05-14T18:28:35.040Z,94393.44
2023-05-14T18:31:03.938Z,94391.59
2023-05-14T18:33:32.254Z,94396.09
2023-05-14T18:35:59.852Z,94398.53
2023-05-14T18:38:27.420Z,94390.78
2023-05-14T18:40:55.026Z,94385.47
2023-05-14T18:43:22.642Z,94392.22
2023-05-14T18:45:52.244Z,94393.69
2023-05-14T18:48:22.256Z,94394.44
2023-05-14T18:50:50.242Z,94403.38
2023-05-14T18:53:23.119Z,94409.06
2023-05-14T18:55:50.061Z,94415.19
2023-05-14T18:58:19.577Z,94417.59
2023-05-14T19:00:47.522Z,94411.66
2023-05-14T19:03:15.075Z,94404.97
2023-05-14T19:05:42.117Z,94412.47
2023-05-14T19:08:10.303Z,94415.88
2023-05-14T19:10:36.903Z,94413.28
2023-05-14T19:13:04.579Z,94408.44
2023-05-14T19:15:33.174Z,94415.91
2023-05-14T19:17:59.913Z,94414.34
2023-05-14T19:20:27.486Z,94419.38
2023-05-14T19:22:55.055Z,94417.81
2023-05-14T19:25:22.654Z,94430.50
2023-05-14T19:27:49.150Z,94424.00
2023-05-14T19:30:17.838Z,94428.09
2023-05-14T19:32:46.522Z,94428.94
2023-05-14T19:35:14.039Z,94427.09
2023-05-14T19:37:42.620Z,94426.56
2023-05-14T19:40:09.270Z,94427.22
2023-05-14T19:42:36.877Z,94423.31
2023-05-14T19:45:04.481Z,94426.78
2023-05-14T19:47:32.220Z,94412.16
2023-05-14T19:49:59.818Z,94412.97
2023-05-14T19:52:26.698Z,94407.03
2023-05-14T19:54:55.512Z,94413.16
2023-05-14T19:57:22.598Z,94408.25
2023-05-14T19:59:50.232Z,94411.88
2023-05-14T20:02:17.168Z,94418.19
2023-05-14T20:04:44.397Z,94420.19
2023-05-14T20:07:12.002Z,94422.41
2023-05-14T20:09:39.600Z,94415.59
2023-05-14T20:12:07.198Z,94407.22
2023-05-14T20:14:34.791Z,94405.97
2023-05-14T20:17:02.438Z,94409.97
2023-05-14T20:19:29.980Z,94409.53
2023-05-14T20:21:58.543Z,94412.31
2023-05-14T20:24:25.026Z,94415.47
2023-05-14T20:26:52.751Z,94410.00
2023-05-14T20:29:20.360Z,94416.56
2023-05-14T20:31:46.907Z,94412.47
2023-05-14T20:34:15.560Z,94403.41
2023-05-14T20:36:43.144Z,94404.03
2023-05-14T20:39:10.735Z,94405.84
2023-05-14T20:41:37.179Z,94406.50
2023-05-14T20:44:03.875Z,94396.34
2023-05-14T20:46:31.602Z,94397.63
2023-05-14T20:48:59.131Z,94401.13
2023-05-14T20:51:26.713Z,94398.56
2023-05-14T20:53:53.607Z,94403.66
2023-05-14T20:56:20.921Z,94400.03
2023-05-14T20:58:48.507Z,94399.63
2023-05-14T21:01:17.110Z,94403.28
2023-05-14T21:03:44.807Z,94401.63
2023-05-14T21:06:12.348Z,94401.38
2023-05-14T21:08:40.092Z,94403.66
2023-05-14T21:11:07.529Z,94401.47
2023-05-14T21:13:35.168Z,94401.72
2023-05-14T21:16:02.769Z,94402.72
2023-05-14T21:18:31.358Z,94407.97
2023-05-14T21:20:57.879Z,94412.69
2023-05-14T21:23:24.581Z,94403.38
2023-05-14T21:25:54.043Z,94400.00
2023-05-14T21:28:20.774Z,94409.00
2023-05-14T21:30:48.344Z,94404.53
2023-05-14T21:33:15.959Z,94405.53
2023-05-14T21:35:44.536Z,94396.53
2023-05-14T21:38:12.137Z,94402.81
2023-05-14T21:40:39.807Z,94404.28
2023-05-14T21:43:08.455Z,94401.16
2023-05-14T21:45:35.961Z,94408.38
2023-05-14T21:48:02.955Z,94422.72
2023-05-14T21:50:30.176Z,94432.84
2023-05-14T21:52:57.819Z,94418.06
2023-05-14T21:55:25.816Z,94415.22
2023-05-14T21:57:52.969Z,94408.38
2023-05-14T22:00:20.598Z,94418.13
2023-05-14T22:02:48.227Z,94418.88
2023-05-14T22:05:15.821Z,94422.06
2023-05-14T22:07:43.360Z,94418.06
2023-05-14T22:10:11.944Z,94411.56
2023-05-14T22:12:39.540Z,94408.28
2023-05-14T22:15:07.166Z,94414.22
2023-05-14T22:17:34.745Z,94403.81
2023-05-14T22:20:02.352Z,94404.84
2023-05-14T22:22:29.913Z,94403.19
2023-05-14T22:24:58.500Z,94401.38
2023-05-14T22:27:26.093Z,94404.03
2023-05-14T22:29:53.704Z,94414.66
2023-05-14T22:32:22.692Z,94412.47
2023-05-14T22:34:49.892Z,94410.09
2023-05-14T22:37:16.472Z,94409.91
2023-05-14T22:39:44.067Z,94410.91
2023-05-14T22:42:11.672Z,94416.56
2023-05-14T22:44:38.496Z,94414.69
2023-05-14T22:47:07.249Z,94407.59
2023-05-14T22:49:35.433Z,94404.75
2023-05-14T22:52:04.600Z,94403.84
2023-05-14T22:54:31.697Z,94407.69
2023-05-14T22:57:00.892Z,94408.13
2023-05-14T22:59:28.903Z,94410.59
2023-05-14T23:01:56.598Z,94411.69
2023-05-14T23:04:24.172Z,94411.41
2023-05-14T23:06:51.712Z,94414.44
2023-05-14T23:09:19.330Z,94413.88
2023-05-14T23:11:46.939Z,94416.78
2023-05-14T23:14:14.502Z,94410.13
2023-05-14T23:16:42.086Z,94410.75
2023-05-14T23:19:11.809Z,94408.75
2023-05-14T23:21:42.283Z,94406.72
2023-05-14T23:24:09.880Z,94398.78
2023-05-14T23:26:37.496Z,94398.53
2023-05-14T23:29:05.070Z,94392.13
2023-05-14T23:31:32.715Z,94390.16
2023-05-14T23:34:00.239Z,94389.75
2023-05-14T23:36:27.826Z,94384.75
2023-05-14T23:38:54.430Z,94378.25
2023-05-14T23:41:22.013Z,94375.25
2023-05-14T23:43:49.607Z,94375.69
2023-05-14T23:46:17.196Z,94371.78
2023-05-14T23:48:45.794Z,94368.06
2023-05-14T23:51:13.406Z,94358.75
2023-05-14T23:53:40.999Z,94354.09
2023-05-14T23:56:08.591Z,94347.91
2023-05-14T23:58:37.336Z,94349.28
